sensor_id;sensor_type;location;lat;lon;timestamp;P1;durP1;ratioP1;P2;durP2;ratioP2
55728;SDS011;41633;39.720;2.910;2024-01-11T00:01:08;5.85;;;1.80;;
55728;SDS011;41633;39.720;2.910;2024-01-11T00:03:39;6.20;;;1.80;;
55728;SDS011;41633;39.720;2.910;2024-01-11T00:06:07;5.53;;;1.73;;
55728;SDS011;41633;39.720;2.910;2024-01-11T00:08:34;4.93;;;1.80;;
55728;SDS011;41633;39.720;2.910;2024-01-11T00:11:02;6.03;;;1.73;;
55728;SDS011;41633;39.720;2.910;2024-01-11T00:13:29;4.78;;;1.60;;
55728;SDS011;41633;39.720;2.910;2024-01-11T00:15:55;4.50;;;1.58;;
55728;SDS011;41633;39.720;2.910;2024-01-11T00:18:22;5.40;;;1.88;;
55728;SDS011;41633;39.720;2.910;2024-01-11T00:20:48;5.13;;;1.90;;
55728;SDS011;41633;39.720;2.910;2024-01-11T00:23:14;7.68;;;3.45;;
55728;SDS011;41633;39.720;2.910;2024-01-11T00:25:41;8.18;;;4.43;;
55728;SDS011;41633;39.720;2.910;2024-01-11T00:28:08;7.63;;;2.90;;
55728;SDS011;41633;39.720;2.910;2024-01-11T00:30:34;5.97;;;2.30;;
55728;SDS011;41633;39.720;2.910;2024-01-11T00:33:02;6.38;;;2.40;;
55728;SDS011;41633;39.720;2.910;2024-01-11T00:35:33;6.38;;;2.00;;
55728;SDS011;41633;39.720;2.910;2024-01-11T00:38:00;6.95;;;2.20;;
55728;SDS011;41633;39.720;2.910;2024-01-11T00:40:27;5.38;;;1.85;;
55728;SDS011;41633;39.720;2.910;2024-01-11T00:42:56;5.57;;;1.60;;
55728;SDS011;41633;39.720;2.910;2024-01-11T00:45:23;5.20;;;1.45;;
55728;SDS011;41633;39.720;2.910;2024-01-11T00:47:50;4.53;;;1.58;;
55728;SDS011;41633;39.720;2.910;2024-01-11T00:50:18;6.88;;;1.58;;
55728;SDS011;41633;39.720;2.910;2024-01-11T00:52:47;3.95;;;1.33;;
55728;SDS011;41633;39.720;2.910;2024-01-11T00:55:14;4.97;;;1.48;;
55728;SDS011;41633;39.720;2.910;2024-01-11T00:57:41;6.55;;;1.90;;
55728;SDS011;41633;39.720;2.910;2024-01-11T01:00:07;4.63;;;1.70;;
55728;SDS011;41633;39.720;2.910;2024-01-11T01:05:02;5.05;;;1.92;;
55728;SDS011;41633;39.720;2.910;2024-01-11T01:07:31;7.72;;;2.38;;
55728;SDS011;41633;39.720;2.910;2024-01-11T01:09:59;6.20;;;2.00;;
55728;SDS011;41633;39.720;2.910;2024-01-11T01:12:26;4.68;;;1.70;;
55728;SDS011;41633;39.720;2.910;2024-01-11T01:14:56;5.53;;;1.80;;
55728;SDS011;41633;39.720;2.910;2024-01-11T01:17:24;5.90;;;2.00;;
55728;SDS011;41633;39.720;2.910;2024-01-11T01:19:51;6.18;;;2.58;;
55728;SDS011;41633;39.720;2.910;2024-01-11T01:22:18;7.03;;;2.10;;
55728;SDS011;41633;39.720;2.910;2024-01-11T01:24:47;6.60;;;2.30;;
55728;SDS011;41633;39.720;2.910;2024-01-11T01:27:16;7.40;;;2.70;;
55728;SDS011;41633;39.720;2.910;2024-01-11T01:29:43;7.57;;;2.90;;
55728;SDS011;41633;39.720;2.910;2024-01-11T01:32:11;7.65;;;2.53;;
55728;SDS011;41633;39.720;2.910;2024-01-11T01:34:38;7.38;;;2.78;;
55728;SDS011;41633;39.720;2.910;2024-01-11T01:37:04;7.25;;;2.30;;
55728;SDS011;41633;39.720;2.910;2024-01-11T01:39:31;7.18;;;2.53;;
55728;SDS011;41633;39.720;2.910;2024-01-11T01:44:26;7.88;;;2.92;;
55728;SDS011;41633;39.720;2.910;2024-01-11T01:46:52;7.15;;;2.42;;
55728;SDS011;41633;39.720;2.910;2024-01-11T01:49:20;7.20;;;2.80;;
55728;SDS011;41633;39.720;2.910;2024-01-11T01:51:48;7.88;;;3.00;;
55728;SDS011;41633;39.720;2.910;2024-01-11T01:54:19;8.05;;;3.40;;
55728;SDS011;41633;39.720;2.910;2024-01-11T01:56:47;8.50;;;3.33;;
55728;SDS011;41633;39.720;2.910;2024-01-11T01:59:16;8.40;;;3.30;;
55728;SDS011;41633;39.720;2.910;2024-01-11T02:01:47;7.00;;;2.67;;
55728;SDS011;41633;39.720;2.910;2024-01-11T02:04:16;8.55;;;3.00;;
55728;SDS011;41633;39.720;2.910;2024-01-11T02:06:43;7.40;;;3.08;;
55728;SDS011;41633;39.720;2.910;2024-01-11T02:09:11;9.05;;;2.90;;
55728;SDS011;41633;39.720;2.910;2024-01-11T02:11:41;8.23;;;3.45;;
55728;SDS011;41633;39.720;2.910;2024-01-11T02:14:09;8.70;;;3.47;;
55728;SDS011;41633;39.720;2.910;2024-01-11T02:16:36;7.57;;;2.88;;
55728;SDS011;41633;39.720;2.910;2024-01-11T02:21:29;7.55;;;3.20;;
55728;SDS011;41633;39.720;2.910;2024-01-11T02:24:04;8.98;;;3.00;;
55728;SDS011;41633;39.720;2.910;2024-01-11T02:26:31;7.80;;;2.80;;
55728;SDS011;41633;39.720;2.910;2024-01-11T02:28:57;7.45;;;2.88;;
55728;SDS011;41633;39.720;2.910;2024-01-11T02:31:25;8.05;;;2.53;;
55728;SDS011;41633;39.720;2.910;2024-01-11T02:33:54;7.05;;;2.33;;
55728;SDS011;41633;39.720;2.910;2024-01-11T02:36:24;6.97;;;2.50;;
55728;SDS011;41633;39.720;2.910;2024-01-11T02:38:53;6.50;;;2.33;;
55728;SDS011;41633;39.720;2.910;2024-01-11T02:41:19;6.47;;;2.55;;
55728;SDS011;41633;39.720;2.910;2024-01-11T02:43:47;6.97;;;2.67;;
55728;SDS011;41633;39.720;2.910;2024-01-11T02:46:15;9.48;;;3.60;;
55728;SDS011;41633;39.720;2.910;2024-01-11T02:48:43;6.28;;;2.50;;
55728;SDS011;41633;39.720;2.910;2024-01-11T02:51:12;6.35;;;2.53;;
55728;SDS011;41633;39.720;2.910;2024-01-11T02:53:39;6.90;;;2.40;;
55728;SDS011;41633;39.720;2.910;2024-01-11T02:56:08;7.47;;;2.60;;
55728;SDS011;41633;39.720;2.910;2024-01-11T02:58:35;6.90;;;2.38;;
55728;SDS011;41633;39.720;2.910;2024-01-11T03:01:02;7.15;;;2.83;;
55728;SDS011;41633;39.720;2.910;2024-01-11T03:03:30;6.30;;;2.72;;
55728;SDS011;41633;39.720;2.910;2024-01-11T03:05:57;7.85;;;3.00;;
55728;SDS011;41633;39.720;2.910;2024-01-11T03:08:26;7.63;;;2.90;;
55728;SDS011;41633;39.720;2.910;2024-01-11T03:10:53;7.60;;;2.88;;
55728;SDS011;41633;39.720;2.910;2024-01-11T03:13:20;7.15;;;3.00;;
55728;SDS011;41633;39.720;2.910;2024-01-11T03:15:48;10.40;;;3.90;;
55728;SDS011;41633;39.720;2.910;2024-01-11T03:18:17;9.65;;;3.60;;
55728;SDS011;41633;39.720;2.910;2024-01-11T03:20:44;9.02;;;3.60;;
55728;SDS011;41633;39.720;2.910;2024-01-11T03:23:10;9.63;;;3.67;;
55728;SDS011;41633;39.720;2.910;2024-01-11T03:25:38;10.82;;;3.60;;
55728;SDS011;41633;39.720;2.910;2024-01-11T03:28:06;8.93;;;3.38;;
55728;SDS011;41633;39.720;2.910;2024-01-11T03:30:34;8.35;;;3.15;;
55728;SDS011;41633;39.720;2.910;2024-01-11T03:33:01;8.60;;;3.22;;
55728;SDS011;41633;39.720;2.910;2024-01-11T03:35:29;8.93;;;3.10;;
55728;SDS011;41633;39.720;2.910;2024-01-11T03:37:57;7.93;;;2.95;;
55728;SDS011;41633;39.720;2.910;2024-01-11T03:40:26;8.68;;;3.05;;
55728;SDS011;41633;39.720;2.910;2024-01-11T03:42:53;7.88;;;2.80;;
55728;SDS011;41633;39.720;2.910;2024-01-11T03:45:21;7.40;;;2.60;;
55728;SDS011;41633;39.720;2.910;2024-01-11T03:47:48;6.47;;;2.25;;
55728;SDS011;41633;39.720;2.910;2024-01-11T03:50:17;7.10;;;2.30;;
55728;SDS011;41633;39.720;2.910;2024-01-11T03:52:46;6.10;;;2.00;;
55728;SDS011;41633;39.720;2.910;2024-01-11T03:55:13;6.70;;;2.10;;
55728;SDS011;41633;39.720;2.910;2024-01-11T03:57:41;7.28;;;2.70;;
55728;SDS011;41633;39.720;2.910;2024-01-11T04:00:09;6.15;;;2.20;;
55728;SDS011;41633;39.720;2.910;2024-01-11T04:02:38;6.85;;;2.28;;
55728;SDS011;41633;39.720;2.910;2024-01-11T04:05:05;7.28;;;2.53;;
55728;SDS011;41633;39.720;2.910;2024-01-11T04:07:33;7.07;;;2.40;;
55728;SDS011;41633;39.720;2.910;2024-01-11T04:10:00;6.95;;;2.38;;
55728;SDS011;41633;39.720;2.910;2024-01-11T04:12:28;8.00;;;2.50;;
55728;SDS011;41633;39.720;2.910;2024-01-11T04:14:55;7.00;;;2.47;;
55728;SDS011;41633;39.720;2.910;2024-01-11T04:17:24;7.10;;;2.45;;
55728;SDS011;41633;39.720;2.910;2024-01-11T04:19:50;5.72;;;2.00;;
55728;SDS011;41633;39.720;2.910;2024-01-11T04:22:18;5.95;;;1.90;;
55728;SDS011;41633;39.720;2.910;2024-01-11T04:24:44;7.78;;;1.98;;
55728;SDS011;41633;39.720;2.910;2024-01-11T04:27:12;5.85;;;1.77;;
55728;SDS011;41633;39.720;2.910;2024-01-11T04:29:40;5.93;;;1.90;;
55728;SDS011;41633;39.720;2.910;2024-01-11T04:32:07;5.55;;;1.80;;
55728;SDS011;41633;39.720;2.910;2024-01-11T04:34:34;5.32;;;1.90;;
55728;SDS011;41633;39.720;2.910;2024-01-11T04:37:03;4.72;;;1.75;;
55728;SDS011;41633;39.720;2.910;2024-01-11T04:39:29;5.50;;;2.00;;
55728;SDS011;41633;39.720;2.910;2024-01-11T04:41:56;5.95;;;1.80;;
55728;SDS011;41633;39.720;2.910;2024-01-11T04:44:23;6.03;;;1.90;;
55728;SDS011;41633;39.720;2.910;2024-01-11T04:46:52;5.22;;;1.80;;
55728;SDS011;41633;39.720;2.910;2024-01-11T04:49:19;6.13;;;2.25;;
55728;SDS011;41633;39.720;2.910;2024-01-11T04:51:48;6.20;;;2.20;;
55728;SDS011;41633;39.720;2.910;2024-01-11T04:54:17;6.70;;;2.05;;
55728;SDS011;41633;39.720;2.910;2024-01-11T04:56:44;7.25;;;2.10;;
55728;SDS011;41633;39.720;2.910;2024-01-11T04:59:10;6.30;;;2.10;;
55728;SDS011;41633;39.720;2.910;2024-01-11T05:01:38;6.82;;;2.00;;
55728;SDS011;41633;39.720;2.910;2024-01-11T05:04:06;5.43;;;1.92;;
55728;SDS011;41633;39.720;2.910;2024-01-11T05:06:34;6.28;;;2.20;;
55728;SDS011;41633;39.720;2.910;2024-01-11T05:09:01;6.90;;;1.73;;
55728;SDS011;41633;39.720;2.910;2024-01-11T05:11:30;5.63;;;1.65;;
55728;SDS011;41633;39.720;2.910;2024-01-11T05:13:57;6.68;;;1.77;;
55728;SDS011;41633;39.720;2.910;2024-01-11T05:16:27;4.82;;;1.40;;
55728;SDS011;41633;39.720;2.910;2024-01-11T05:18:57;4.30;;;1.50;;
55728;SDS011;41633;39.720;2.910;2024-01-11T05:21:25;7.72;;;1.65;;
55728;SDS011;41633;39.720;2.910;2024-01-11T05:23:53;3.80;;;1.10;;
55728;SDS011;41633;39.720;2.910;2024-01-11T05:26:20;4.38;;;1.40;;
55728;SDS011;41633;39.720;2.910;2024-01-11T05:28:48;4.53;;;1.30;;
55728;SDS011;41633;39.720;2.910;2024-01-11T05:31:15;3.80;;;1.35;;
55728;SDS011;41633;39.720;2.910;2024-01-11T05:33:43;3.88;;;1.20;;
55728;SDS011;41633;39.720;2.910;2024-01-11T05:36:09;5.28;;;1.20;;
55728;SDS011;41633;39.720;2.910;2024-01-11T05:38:37;5.13;;;1.40;;
55728;SDS011;41633;39.720;2.910;2024-01-11T05:41:04;5.72;;;1.38;;
55728;SDS011;41633;39.720;2.910;2024-01-11T05:43:31;4.35;;;1.38;;
55728;SDS011;41633;39.720;2.910;2024-01-11T05:45:58;3.85;;;1.42;;
55728;SDS011;41633;39.720;2.910;2024-01-11T05:48:26;5.55;;;1.67;;
55728;SDS011;41633;39.720;2.910;2024-01-11T05:50:53;5.50;;;1.85;;
55728;SDS011;41633;39.720;2.910;2024-01-11T05:53:20;6.85;;;1.90;;
55728;SDS011;41633;39.720;2.910;2024-01-11T05:55:49;7.93;;;1.65;;
55728;SDS011;41633;39.720;2.910;2024-01-11T05:58:16;4.88;;;1.50;;
55728;SDS011;41633;39.720;2.910;2024-01-11T06:00:42;4.25;;;1.30;;
55728;SDS011;41633;39.720;2.910;2024-01-11T06:03:11;4.70;;;1.40;;
55728;SDS011;41633;39.720;2.910;2024-01-11T06:05:41;6.32;;;1.85;;
55728;SDS011;41633;39.720;2.910;2024-01-11T06:08:07;5.80;;;2.10;;
55728;SDS011;41633;39.720;2.910;2024-01-11T06:10:35;5.38;;;2.08;;
55728;SDS011;41633;39.720;2.910;2024-01-11T06:13:02;6.05;;;2.20;;
55728;SDS011;41633;39.720;2.910;2024-01-11T06:15:29;5.53;;;1.65;;
55728;SDS011;41633;39.720;2.910;2024-01-11T06:17:55;8.65;;;3.03;;
55728;SDS011;41633;39.720;2.910;2024-01-11T06:20:24;6.85;;;2.60;;
55728;SDS011;41633;39.720;2.910;2024-01-11T06:22:50;6.57;;;2.42;;
55728;SDS011;41633;39.720;2.910;2024-01-11T06:25:19;6.43;;;2.22;;
55728;SDS011;41633;39.720;2.910;2024-01-11T06:27:47;8.20;;;2.15;;
55728;SDS011;41633;39.720;2.910;2024-01-11T06:30:13;6.80;;;2.25;;
55728;SDS011;41633;39.720;2.910;2024-01-11T06:32:40;6.65;;;2.30;;
55728;SDS011;41633;39.720;2.910;2024-01-11T06:35:09;5.22;;;2.17;;
55728;SDS011;41633;39.720;2.910;2024-01-11T06:37:36;5.78;;;2.17;;
55728;SDS011;41633;39.720;2.910;2024-01-11T06:40:04;5.90;;;2.00;;
55728;SDS011;41633;39.720;2.910;2024-01-11T06:42:34;5.53;;;2.00;;
55728;SDS011;41633;39.720;2.910;2024-01-11T06:45:01;5.55;;;1.98;;
55728;SDS011;41633;39.720;2.910;2024-01-11T06:47:29;6.70;;;2.53;;
55728;SDS011;41633;39.720;2.910;2024-01-11T06:49:58;7.93;;;3.72;;
55728;SDS011;41633;39.720;2.910;2024-01-11T06:52:26;8.63;;;3.97;;
55728;SDS011;41633;39.720;2.910;2024-01-11T06:54:53;10.88;;;5.03;;
55728;SDS011;41633;39.720;2.910;2024-01-11T06:57:20;9.27;;;5.43;;
55728;SDS011;41633;39.720;2.910;2024-01-11T06:59:48;8.23;;;4.45;;
55728;SDS011;41633;39.720;2.910;2024-01-11T07:02:16;9.18;;;4.32;;
55728;SDS011;41633;39.720;2.910;2024-01-11T07:04:44;8.65;;;4.10;;
55728;SDS011;41633;39.720;2.910;2024-01-11T07:07:11;7.70;;;3.03;;
55728;SDS011;41633;39.720;2.910;2024-01-11T07:09:40;7.22;;;2.75;;
55728;SDS011;41633;39.720;2.910;2024-01-11T07:12:06;6.25;;;2.60;;
55728;SDS011;41633;39.720;2.910;2024-01-11T07:14:34;6.85;;;2.72;;
55728;SDS011;41633;39.720;2.910;2024-01-11T07:17:01;6.90;;;2.70;;
55728;SDS011;41633;39.720;2.910;2024-01-11T07:19:29;7.30;;;2.67;;
55728;SDS011;41633;39.720;2.910;2024-01-11T07:21:58;9.18;;;3.05;;
55728;SDS011;41633;39.720;2.910;2024-01-11T07:24:25;9.73;;;3.13;;
55728;SDS011;41633;39.720;2.910;2024-01-11T07:26:52;11.45;;;3.20;;
55728;SDS011;41633;39.720;2.910;2024-01-11T07:29:21;9.80;;;3.20;;
55728;SDS011;41633;39.720;2.910;2024-01-11T07:31:49;6.68;;;2.95;;
55728;SDS011;41633;39.720;2.910;2024-01-11T07:34:17;7.00;;;2.55;;
55728;SDS011;41633;39.720;2.910;2024-01-11T07:36:44;8.18;;;3.22;;
55728;SDS011;41633;39.720;2.910;2024-01-11T07:39:10;13.45;;;5.40;;
55728;SDS011;41633;39.720;2.910;2024-01-11T07:41:38;13.25;;;4.05;;
55728;SDS011;41633;39.720;2.910;2024-01-11T07:44:06;9.75;;;4.30;;
55728;SDS011;41633;39.720;2.910;2024-01-11T07:46:34;10.30;;;4.88;;
55728;SDS011;41633;39.720;2.910;2024-01-11T07:49:00;14.43;;;8.15;;
55728;SDS011;41633;39.720;2.910;2024-01-11T07:51:27;14.48;;;8.38;;
55728;SDS011;41633;39.720;2.910;2024-01-11T07:53:54;13.75;;;7.63;;
55728;SDS011;41633;39.720;2.910;2024-01-11T07:56:20;14.80;;;8.40;;
55728;SDS011;41633;39.720;2.910;2024-01-11T08:01:15;21.83;;;13.75;;
55728;SDS011;41633;39.720;2.910;2024-01-11T08:03:42;17.65;;;11.00;;
55728;SDS011;41633;39.720;2.910;2024-01-11T08:06:11;14.27;;;8.15;;
55728;SDS011;41633;39.720;2.910;2024-01-11T08:08:39;10.23;;;5.20;;
55728;SDS011;41633;39.720;2.910;2024-01-11T08:11:10;10.00;;;4.07;;
55728;SDS011;41633;39.720;2.910;2024-01-11T08:13:38;11.88;;;4.82;;
55728;SDS011;41633;39.720;2.910;2024-01-11T08:16:07;13.95;;;4.22;;
55728;SDS011;41633;39.720;2.910;2024-01-11T08:18:35;12.50;;;4.30;;
55728;SDS011;41633;39.720;2.910;2024-01-11T08:21:03;12.13;;;4.40;;
55728;SDS011;41633;39.720;2.910;2024-01-11T08:23:45;10.68;;;4.18;;
55728;SDS011;41633;39.720;2.910;2024-01-11T08:26:14;9.45;;;4.13;;
55728;SDS011;41633;39.720;2.910;2024-01-11T08:28:42;12.50;;;3.90;;
55728;SDS011;41633;39.720;2.910;2024-01-11T08:31:11;10.70;;;4.18;;
55728;SDS011;41633;39.720;2.910;2024-01-11T08:33:39;15.82;;;4.75;;
55728;SDS011;41633;39.720;2.910;2024-01-11T08:36:06;11.50;;;4.97;;
55728;SDS011;41633;39.720;2.910;2024-01-11T08:38:35;9.85;;;4.82;;
55728;SDS011;41633;39.720;2.910;2024-01-11T08:41:02;9.93;;;4.40;;
55728;SDS011;41633;39.720;2.910;2024-01-11T08:43:30;7.55;;;3.40;;
55728;SDS011;41633;39.720;2.910;2024-01-11T08:45:57;8.55;;;3.58;;
55728;SDS011;41633;39.720;2.910;2024-01-11T08:48:25;7.50;;;3.10;;
55728;SDS011;41633;39.720;2.910;2024-01-11T08:50:52;6.07;;;2.40;;
55728;SDS011;41633;39.720;2.910;2024-01-11T08:53:20;8.23;;;2.45;;
55728;SDS011;41633;39.720;2.910;2024-01-11T08:55:48;7.35;;;2.47;;
55728;SDS011;41633;39.720;2.910;2024-01-11T08:58:14;7.10;;;2.55;;
55728;SDS011;41633;39.720;2.910;2024-01-11T09:00:41;7.32;;;2.17;;
55728;SDS011;41633;39.720;2.910;2024-01-11T09:03:10;8.70;;;2.88;;
55728;SDS011;41633;39.720;2.910;2024-01-11T09:05:39;8.60;;;3.53;;
55728;SDS011;41633;39.720;2.910;2024-01-11T09:08:08;7.45;;;3.00;;
55728;SDS011;41633;39.720;2.910;2024-01-11T09:10:35;11.05;;;3.20;;
55728;SDS011;41633;39.720;2.910;2024-01-11T09:13:02;7.68;;;3.28;;
55728;SDS011;41633;39.720;2.910;2024-01-11T09:15:29;7.68;;;2.80;;
55728;SDS011;41633;39.720;2.910;2024-01-11T09:17:56;7.43;;;2.80;;
55728;SDS011;41633;39.720;2.910;2024-01-11T09:20:24;6.80;;;2.65;;
55728;SDS011;41633;39.720;2.910;2024-01-11T09:22:52;5.90;;;1.88;;
55728;SDS011;41633;39.720;2.910;2024-01-11T09:25:20;6.47;;;2.42;;
55728;SDS011;41633;39.720;2.910;2024-01-11T09:27:47;6.82;;;2.75;;
55728;SDS011;41633;39.720;2.910;2024-01-11T09:30:15;6.47;;;2.65;;
55728;SDS011;41633;39.720;2.910;2024-01-11T09:32:42;6.32;;;2.55;;
55728;SDS011;41633;39.720;2.910;2024-01-11T09:35:10;7.63;;;2.40;;
55728;SDS011;41633;39.720;2.910;2024-01-11T09:37:37;6.85;;;2.38;;
55728;SDS011;41633;39.720;2.910;2024-01-11T09:40:06;7.63;;;2.30;;
55728;SDS011;41633;39.720;2.910;2024-01-11T09:42:40;6.93;;;2.58;;
55728;SDS011;41633;39.720;2.910;2024-01-11T09:45:09;7.72;;;2.58;;
55728;SDS011;41633;39.720;2.910;2024-01-11T09:47:39;14.00;;;3.65;;
55728;SDS011;41633;39.720;2.910;2024-01-11T09:50:07;14.48;;;3.75;;
55728;SDS011;41633;39.720;2.910;2024-01-11T09:52:36;13.60;;;3.92;;
55728;SDS011;41633;39.720;2.910;2024-01-11T09:55:04;10.68;;;3.15;;
55728;SDS011;41633;39.720;2.910;2024-01-11T09:57:34;12.98;;;3.33;;
55728;SDS011;41633;39.720;2.910;2024-01-11T10:00:03;8.48;;;3.03;;
55728;SDS011;41633;39.720;2.910;2024-01-11T10:02:33;11.07;;;3.60;;
55728;SDS011;41633;39.720;2.910;2024-01-11T10:05:01;10.07;;;3.72;;
55728;SDS011;41633;39.720;2.910;2024-01-11T10:07:30;11.65;;;3.95;;
55728;SDS011;41633;39.720;2.910;2024-01-11T10:09:59;13.50;;;4.53;;
55728;SDS011;41633;39.720;2.910;2024-01-11T10:12:29;12.55;;;4.30;;
55728;SDS011;41633;39.720;2.910;2024-01-11T10:15:03;13.93;;;4.15;;
55728;SDS011;41633;39.720;2.910;2024-01-11T10:17:31;9.13;;;3.28;;
55728;SDS011;41633;39.720;2.910;2024-01-11T10:19:58;10.15;;;3.25;;
55728;SDS011;41633;39.720;2.910;2024-01-11T10:22:26;8.25;;;3.40;;
55728;SDS011;41633;39.720;2.910;2024-01-11T10:27:57;10.27;;;4.78;;
55728;SDS011;41633;39.720;2.910;2024-01-11T10:30:25;15.93;;;9.68;;
55728;SDS011;41633;39.720;2.910;2024-01-11T10:32:54;15.63;;;8.43;;
55728;SDS011;41633;39.720;2.910;2024-01-11T10:35:25;20.38;;;11.95;;
55728;SDS011;41633;39.720;2.910;2024-01-11T10:37:52;17.88;;;10.18;;
55728;SDS011;41633;39.720;2.910;2024-01-11T10:40:21;13.75;;;7.20;;
55728;SDS011;41633;39.720;2.910;2024-01-11T10:42:50;14.85;;;7.65;;
55728;SDS011;41633;39.720;2.910;2024-01-11T10:45:19;12.90;;;6.47;;
55728;SDS011;41633;39.720;2.910;2024-01-11T10:47:51;9.80;;;4.43;;
55728;SDS011;41633;39.720;2.910;2024-01-11T10:50:25;8.48;;;3.60;;
55728;SDS011;41633;39.720;2.910;2024-01-11T10:53:04;7.93;;;2.60;;
55728;SDS011;41633;39.720;2.910;2024-01-11T10:55:35;6.15;;;2.00;;
55728;SDS011;41633;39.720;2.910;2024-01-11T10:58:03;5.75;;;1.77;;
55728;SDS011;41633;39.720;2.910;2024-01-11T11:00:31;5.90;;;2.08;;
55728;SDS011;41633;39.720;2.910;2024-01-11T11:02:59;5.95;;;2.10;;
55728;SDS011;41633;39.720;2.910;2024-01-11T11:05:29;6.32;;;2.30;;
55728;SDS011;41633;39.720;2.910;2024-01-11T11:12:52;7.43;;;2.38;;
55728;SDS011;41633;39.720;2.910;2024-01-11T11:15:28;7.32;;;2.88;;
55728;SDS011;41633;39.720;2.910;2024-01-11T11:17:56;10.98;;;4.40;;
55728;SDS011;41633;39.720;2.910;2024-01-11T11:20:24;9.63;;;5.13;;
55728;SDS011;41633;39.720;2.910;2024-01-11T11:23:04;10.45;;;4.60;;
55728;SDS011;41633;39.720;2.910;2024-01-11T11:25:31;10.50;;;4.07;;
55728;SDS011;41633;39.720;2.910;2024-01-11T11:27:58;8.20;;;3.92;;
55728;SDS011;41633;39.720;2.910;2024-01-11T11:30:30;9.25;;;3.80;;
55728;SDS011;41633;39.720;2.910;2024-01-11T11:33:20;8.20;;;3.75;;
55728;SDS011;41633;39.720;2.910;2024-01-11T11:35:47;9.57;;;4.22;;
55728;SDS011;41633;39.720;2.910;2024-01-11T11:38:22;8.75;;;3.45;;
55728;SDS011;41633;39.720;2.910;2024-01-11T11:40:51;9.15;;;3.95;;
55728;SDS011;41633;39.720;2.910;2024-01-11T11:43:20;8.23;;;3.70;;
55728;SDS011;41633;39.720;2.910;2024-01-11T11:45:48;10.57;;;3.72;;
55728;SDS011;41633;39.720;2.910;2024-01-11T11:49:02;9.25;;;3.10;;
55728;SDS011;41633;39.720;2.910;2024-01-11T11:51:11;7.95;;;2.97;;
55728;SDS011;41633;39.720;2.910;2024-01-11T11:53:40;6.97;;;2.47;;
55728;SDS011;41633;39.720;2.910;2024-01-11T11:56:11;9.27;;;2.67;;
55728;SDS011;41633;39.720;2.910;2024-01-11T11:58:42;7.03;;;2.63;;
55728;SDS011;41633;39.720;2.910;2024-01-11T12:01:10;9.57;;;4.13;;
55728;SDS011;41633;39.720;2.910;2024-01-11T12:03:38;8.45;;;3.38;;
55728;SDS011;41633;39.720;2.910;2024-01-11T12:06:18;9.70;;;3.40;;
55728;SDS011;41633;39.720;2.910;2024-01-11T12:08:44;9.32;;;3.60;;
55728;SDS011;41633;39.720;2.910;2024-01-11T12:11:20;8.73;;;2.60;;
55728;SDS011;41633;39.720;2.910;2024-01-11T12:13:49;8.75;;;3.83;;
55728;SDS011;41633;39.720;2.910;2024-01-11T12:16:15;12.05;;;4.88;;
55728;SDS011;41633;39.720;2.910;2024-01-11T12:18:43;10.93;;;6.07;;
55728;SDS011;41633;39.720;2.910;2024-01-11T12:21:11;14.88;;;7.68;;
55728;SDS011;41633;39.720;2.910;2024-01-11T12:23:39;14.23;;;7.90;;
55728;SDS011;41633;39.720;2.910;2024-01-11T12:26:08;12.43;;;6.05;;
55728;SDS011;41633;39.720;2.910;2024-01-11T12:28:39;11.43;;;6.22;;
55728;SDS011;41633;39.720;2.910;2024-01-11T12:31:08;10.15;;;5.07;;
55728;SDS011;41633;39.720;2.910;2024-01-11T12:33:35;10.70;;;5.10;;
55728;SDS011;41633;39.720;2.910;2024-01-11T12:36:05;8.95;;;3.80;;
55728;SDS011;41633;39.720;2.910;2024-01-11T12:38:34;11.15;;;5.88;;
55728;SDS011;41633;39.720;2.910;2024-01-11T12:41:03;9.00;;;4.53;;
55728;SDS011;41633;39.720;2.910;2024-01-11T12:43:31;12.27;;;6.50;;
55728;SDS011;41633;39.720;2.910;2024-01-11T12:46:00;12.05;;;7.72;;
55728;SDS011;41633;39.720;2.910;2024-01-11T12:48:28;12.88;;;8.20;;
55728;SDS011;41633;39.720;2.910;2024-01-11T12:50:57;12.68;;;7.15;;
55728;SDS011;41633;39.720;2.910;2024-01-11T12:53:25;9.88;;;5.25;;
55728;SDS011;41633;39.720;2.910;2024-01-11T12:56:10;8.45;;;3.63;;
55728;SDS011;41633;39.720;2.910;2024-01-11T12:58:36;9.70;;;4.20;;
55728;SDS011;41633;39.720;2.910;2024-01-11T13:01:05;8.68;;;3.75;;
55728;SDS011;41633;39.720;2.910;2024-01-11T13:03:34;7.65;;;3.10;;
55728;SDS011;41633;39.720;2.910;2024-01-11T13:06:02;7.75;;;3.20;;
55728;SDS011;41633;39.720;2.910;2024-01-11T13:08:32;8.90;;;3.65;;
55728;SDS011;41633;39.720;2.910;2024-01-11T13:11:04;7.43;;;2.90;;
55728;SDS011;41633;39.720;2.910;2024-01-11T13:13:35;8.25;;;3.03;;
55728;SDS011;41633;39.720;2.910;2024-01-11T13:16:04;9.32;;;3.28;;
55728;SDS011;41633;39.720;2.910;2024-01-11T13:18:39;8.45;;;3.30;;
55728;SDS011;41633;39.720;2.910;2024-01-11T13:21:06;9.43;;;4.43;;
55728;SDS011;41633;39.720;2.910;2024-01-11T13:23:35;9.07;;;4.72;;
55728;SDS011;41633;39.720;2.910;2024-01-11T13:26:05;9.55;;;4.60;;
55728;SDS011;41633;39.720;2.910;2024-01-11T13:28:33;9.95;;;4.85;;
55728;SDS011;41633;39.720;2.910;2024-01-11T13:31:00;11.48;;;5.53;;
55728;SDS011;41633;39.720;2.910;2024-01-11T13:33:29;10.57;;;5.57;;
55728;SDS011;41633;39.720;2.910;2024-01-11T13:35:57;13.68;;;9.15;;
55728;SDS011;41633;39.720;2.910;2024-01-11T13:38:25;12.32;;;9.57;;
55728;SDS011;41633;39.720;2.910;2024-01-11T13:40:52;15.25;;;11.27;;
55728;SDS011;41633;39.720;2.910;2024-01-11T13:43:20;18.60;;;15.55;;
55728;SDS011;41633;39.720;2.910;2024-01-11T13:45:48;16.40;;;11.00;;
55728;SDS011;41633;39.720;2.910;2024-01-11T13:48:15;20.85;;;16.15;;
55728;SDS011;41633;39.720;2.910;2024-01-11T13:50:43;18.52;;;13.55;;
55728;SDS011;41633;39.720;2.910;2024-01-11T13:53:11;19.77;;;12.43;;
55728;SDS011;41633;39.720;2.910;2024-01-11T13:55:38;15.25;;;10.63;;
55728;SDS011;41633;39.720;2.910;2024-01-11T13:58:06;18.38;;;9.57;;
55728;SDS011;41633;39.720;2.910;2024-01-11T14:00:33;15.00;;;9.32;;
55728;SDS011;41633;39.720;2.910;2024-01-11T14:03:01;20.02;;;12.13;;
55728;SDS011;41633;39.720;2.910;2024-01-11T14:05:31;15.93;;;7.78;;
55728;SDS011;41633;39.720;2.910;2024-01-11T14:08:00;14.57;;;7.57;;
55728;SDS011;41633;39.720;2.910;2024-01-11T14:10:32;10.30;;;5.10;;
55728;SDS011;41633;39.720;2.910;2024-01-11T14:13:02;12.07;;;6.90;;
55728;SDS011;41633;39.720;2.910;2024-01-11T14:15:30;15.75;;;7.55;;
55728;SDS011;41633;39.720;2.910;2024-01-11T14:17:57;18.65;;;10.32;;
55728;SDS011;41633;39.720;2.910;2024-01-11T14:20:23;17.48;;;10.80;;
55728;SDS011;41633;39.720;2.910;2024-01-11T14:22:50;17.85;;;9.90;;
55728;SDS011;41633;39.720;2.910;2024-01-11T14:30:11;13.75;;;6.53;;
55728;SDS011;41633;39.720;2.910;2024-01-11T14:32:38;19.77;;;8.00;;
55728;SDS011;41633;39.720;2.910;2024-01-11T14:35:07;15.98;;;7.60;;
55728;SDS011;41633;39.720;2.910;2024-01-11T14:37:35;12.60;;;6.43;;
55728;SDS011;41633;39.720;2.910;2024-01-11T14:40:02;15.88;;;8.15;;
55728;SDS011;41633;39.720;2.910;2024-01-11T14:42:30;15.25;;;7.72;;
55728;SDS011;41633;39.720;2.910;2024-01-11T14:45:00;21.35;;;14.10;;
55728;SDS011;41633;39.720;2.910;2024-01-11T14:47:27;16.63;;;6.68;;
55728;SDS011;41633;39.720;2.910;2024-01-11T14:49:55;16.52;;;7.40;;
55728;SDS011;41633;39.720;2.910;2024-01-11T14:52:25;15.93;;;7.57;;
55728;SDS011;41633;39.720;2.910;2024-01-11T14:54:53;14.82;;;7.28;;
55728;SDS011;41633;39.720;2.910;2024-01-11T14:57:21;20.27;;;11.43;;
55728;SDS011;41633;39.720;2.910;2024-01-11T14:59:48;16.80;;;9.30;;
55728;SDS011;41633;39.720;2.910;2024-01-11T15:02:14;18.65;;;8.30;;
55728;SDS011;41633;39.720;2.910;2024-01-11T15:04:40;15.82;;;7.57;;
55728;SDS011;41633;39.720;2.910;2024-01-11T15:07:08;17.65;;;7.93;;
55728;SDS011;41633;39.720;2.910;2024-01-11T15:09:36;14.68;;;6.68;;
55728;SDS011;41633;39.720;2.910;2024-01-11T15:12:05;13.13;;;4.70;;